sensor_id;sensor_type;location;lat;lon;timestamp;temperature;humidity
36556;DHT22;40859;50.560;7.268;2022-08-01T00:02:08;25.70;99.90
36556;DHT22;40859;50.560;7.268;2022-08-01T00:04:34;25.70;99.90
36556;DHT22;40859;50.560;7.268;2022-08-01T00:07:00;25.70;99.90
36556;DHT22;40859;50.560;7.268;2022-08-01T00:09:26;25.60;99.90
36556;DHT22;40859;50.560;7.268;2022-08-01T00:11:51;25.70;99.90
36556;DHT22;40859;50.560;7.268;2022-08-01T00:14:21;25.70;99.90
36556;DHT22;40859;50.560;7.268;2022-08-01T00:16:48;25.70;99.90
36556;DHT22;40859;50.560;7.268;2022-08-01T00:19:14;25.70;99.90
36556;DHT22;40859;50.560;7.268;2022-08-01T00:21:39;25.70;99.90
36556;DHT22;40859;50.560;7.268;2022-08-01T00:24:05;25.70;99.90
36556;DHT22;40859;50.560;7.268;2022-08-01T00:26:32;25.70;99.90
36556;DHT22;40859;50.560;7.268;2022-08-01T00:28:58;25.70;99.90
36556;DHT22;40859;50.560;7.268;2022-08-01T00:31:24;25.70;99.90
36556;DHT22;40859;50.560;7.268;2022-08-01T00:33:49;25.70;99.90
36556;DHT22;40859;50.560;7.268;2022-08-01T00:36:15;25.70;99.90
36556;DHT22;40859;50.560;7.268;2022-08-01T00:38:41;25.70;99.90
36556;DHT22;40859;50.560;7.268;2022-08-01T00:41:07;25.60;99.90
36556;DHT22;40859;50.560;7.268;2022-08-01T00:43:33;25.70;99.90
36556;DHT22;40859;50.560;7.268;2022-08-01T00:45:58;25.70;99.90
36556;DHT22;40859;50.560;7.268;2022-08-01T00:48:28;25.70;99.90
36556;DHT22;40859;50.560;7.268;2022-08-01T00:50:54;25.70;99.90
36556;DHT22;40859;50.560;7.268;2022-08-01T00:53:20;25.70;99.90
36556;DHT22;40859;50.560;7.268;2022-08-01T00:55:47;25.70;99.90
36556;DHT22;40859;50.560;7.268;2022-08-01T00:58:13;25.70;99.90
36556;DHT22;40859;50.560;7.268;2022-08-01T01:00:39;25.70;99.90
36556;DHT22;40859;50.560;7.268;2022-08-01T01:03:05;25.70;99.90
36556;DHT22;40859;50.560;7.268;2022-08-01T01:05:36;25.70;99.90
36556;DHT22;40859;50.560;7.268;2022-08-01T01:08:15;25.70;99.90
36556;DHT22;40859;50.560;7.268;2022-08-01T01:10:57;25.70;99.90
36556;DHT22;40859;50.560;7.268;2022-08-01T01:13:46;25.70;99.90
36556;DHT22;40859;50.560;7.268;2022-08-01T01:16:17;25.70;99.90
36556;DHT22;40859;50.560;7.268;2022-08-01T01:18:55;25.70;99.90
36556;DHT22;40859;50.560;7.268;2022-08-01T01:23:04;25.70;99.90
36556;DHT22;40859;50.560;7.268;2022-08-01T01:27:10;25.70;99.90
36556;DHT22;40859;50.560;7.268;2022-08-01T01:29:43;25.70;99.90
36556;DHT22;40859;50.560;7.268;2022-08-01T01:32:37;25.70;99.90
36556;DHT22;40859;50.560;7.268;2022-08-01T01:35:08;25.70;99.90
36556;DHT22;40859;50.560;7.268;2022-08-01T01:37:35;25.70;99.90
36556;DHT22;40859;50.560;7.268;2022-08-01T01:40:05;25.70;99.90
36556;DHT22;40859;50.560;7.268;2022-08-01T01:42:32;25.60;99.90
36556;DHT22;40859;50.560;7.268;2022-08-01T01:45:00;25.70;99.90
36556;DHT22;40859;50.560;7.268;2022-08-01T01:47:29;25.70;99.90
36556;DHT22;40859;50.560;7.268;2022-08-01T01:49:58;25.70;99.90
36556;DHT22;40859;50.560;7.268;2022-08-01T01:52:26;25.70;99.90
36556;DHT22;40859;50.560;7.268;2022-08-01T01:54:54;25.70;99.90
36556;DHT22;40859;50.560;7.268;2022-08-01T01:57:22;25.70;99.90
36556;DHT22;40859;50.560;7.268;2022-08-01T01:59:50;25.70;99.90
36556;DHT22;40859;50.560;7.268;2022-08-01T02:02:17;25.70;99.90
36556;DHT22;40859;50.560;7.268;2022-08-01T02:04:45;25.70;99.90
36556;DHT22;40859;50.560;7.268;2022-08-01T02:07:16;25.70;99.90
36556;DHT22;40859;50.560;7.268;2022-08-01T02:09:43;25.60;99.90
36556;DHT22;40859;50.560;7.268;2022-08-01T02:12:12;25.70;99.90
36556;DHT22;40859;50.560;7.268;2022-08-01T02:14:41;25.70;99.90
36556;DHT22;40859;50.560;7.268;2022-08-01T02:17:11;25.60;99.90
36556;DHT22;40859;50.560;7.268;2022-08-01T02:19:38;25.70;99.90
36556;DHT22;40859;50.560;7.268;2022-08-01T02:22:14;25.70;99.90
36556;DHT22;40859;50.560;7.268;2022-08-01T02:24:51;25.70;99.90
36556;DHT22;40859;50.560;7.268;2022-08-01T02:27:24;25.70;99.90
36556;DHT22;40859;50.560;7.268;2022-08-01T02:29:53;25.70;99.90
36556;DHT22;40859;50.560;7.268;2022-08-01T02:32:31;25.70;99.90
36556;DHT22;40859;50.560;7.268;2022-08-01T02:35:00;25.60;99.90
36556;DHT22;40859;50.560;7.268;2022-08-01T02:37:33;25.70;99.90
36556;DHT22;40859;50.560;7.268;2022-08-01T02:40:00;25.60;99.90
36556;DHT22;40859;50.560;7.268;2022-08-01T02:42:27;25.70;99.90
36556;DHT22;40859;50.560;7.268;2022-08-01T02:44:56;25.60;99.90
36556;DHT22;40859;50.560;7.268;2022-08-01T02:47:23;25.60;99.90
36556;DHT22;40859;50.560;7.268;2022-08-01T02:49:52;25.60;99.90
36556;DHT22;40859;50.560;7.268;2022-08-01T02:52:20;25.60;99.90
36556;DHT22;40859;50.560;7.268;2022-08-01T02:54:50;25.60;99.90
36556;DHT22;40859;50.560;7.268;2022-08-01T02:57:18;25.60;99.90
36556;DHT22;40859;50.560;7.268;2022-08-01T02:59:47;25.60;99.90
36556;DHT22;40859;50.560;7.268;2022-08-01T03:02:15;25.60;99.90
36556;DHT22;40859;50.560;7.268;2022-08-01T03:04:43;25.60;99.90
36556;DHT22;40859;50.560;7.268;2022-08-01T03:07:12;25.60;99.90
36556;DHT22;40859;50.560;7.268;2022-08-01T03:09:43;25.60;99.90
36556;DHT22;40859;50.560;7.268;2022-08-01T03:12:17;25.60;99.90
36556;DHT22;40859;50.560;7.268;2022-08-01T03:14:44;25.60;99.90
36556;DHT22;40859;50.560;7.268;2022-08-01T03:17:12;25.60;99.90
36556;DHT22;40859;50.560;7.268;2022-08-01T03:19:39;25.60;99.90
36556;DHT22;40859;50.560;7.268;2022-08-01T03:22:11;25.60;99.90
36556;DHT22;40859;50.560;7.268;2022-08-01T03:24:39;25.60;99.90
36556;DHT22;40859;50.560;7.268;2022-08-01T03:27:07;25.50;99.90
36556;DHT22;40859;50.560;7.268;2022-08-01T03:29:34;25.50;99.90
36556;DHT22;40859;50.560;7.268;2022-08-01T03:32:02;25.60;99.90
36556;DHT22;40859;50.560;7.268;2022-08-01T03:34:29;25.60;99.90
36556;DHT22;40859;50.560;7.268;2022-08-01T03:46:40;25.60;99.90
36556;DHT22;40859;50.560;7.268;2022-08-01T03:49:11;25.60;99.90
36556;DHT22;40859;50.560;7.268;2022-08-01T03:51:40;25.50;99.90
36556;DHT22;40859;50.560;7.268;2022-08-01T03:54:07;25.60;99.90
36556;DHT22;40859;50.560;7.268;2022-08-01T03:56:35;25.60;99.90
36556;DHT22;40859;50.560;7.268;2022-08-01T03:59:02;25.60;99.90
36556;DHT22;40859;50.560;7.268;2022-08-01T04:01:31;25.60;99.90
36556;DHT22;40859;50.560;7.268;2022-08-01T04:03:59;25.60;99.90
36556;DHT22;40859;50.560;7.268;2022-08-01T04:06:25;25.60;99.90
36556;DHT22;40859;50.560;7.268;2022-08-01T04:08:51;25.60;99.90
36556;DHT22;40859;50.560;7.268;2022-08-01T04:11:27;25.50;99.90
36556;DHT22;40859;50.560;7.268;2022-08-01T04:13:54;25.60;99.90
36556;DHT22;40859;50.560;7.268;2022-08-01T04:16:20;25.60;99.90
36556;DHT22;40859;50.560;7.268;2022-08-01T04:18:46;25.60;99.90
36556;DHT22;40859;50.560;7.268;2022-08-01T04:21:13;25.60;99.90
36556;DHT22;40859;50.560;7.268;2022-08-01T04:23:41;25.60;99.90
36556;DHT22;40859;50.560;7.268;2022-08-01T04:26:10;25.50;99.90
36556;DHT22;40859;50.560;7.268;2022-08-01T04:28:39;25.60;99.90
36556;DHT22;40859;50.560;7.268;2022-08-01T04:31:08;25.50;99.90
36556;DHT22;40859;50.560;7.268;2022-08-01T04:33:38;25.50;99.90
36556;DHT22;40859;50.560;7.268;2022-08-01T04:36:07;25.50;99.90
36556;DHT22;40859;50.560;7.268;2022-08-01T04:38:36;25.50;99.90
36556;DHT22;40859;50.560;7.268;2022-08-01T04:41:04;25.50;99.90
36556;DHT22;40859;50.560;7.268;2022-08-01T04:43:32;25.60;99.90
36556;DHT22;40859;50.560;7.268;2022-08-01T04:45:59;25.50;99.90
36556;DHT22;40859;50.560;7.268;2022-08-01T04:48:27;25.50;99.90
36556;DHT22;40859;50.560;7.268;2022-08-01T04:50:52;25.50;99.90
36556;DHT22;40859;50.560;7.268;2022-08-01T04:53:20;25.50;99.90
36556;DHT22;40859;50.560;7.268;2022-08-01T04:55:49;25.50;99.90
36556;DHT22;40859;50.560;7.268;2022-08-01T04:58:15;25.50;99.90
36556;DHT22;40859;50.560;7.268;2022-08-01T05:00:42;25.40;99.90
36556;DHT22;40859;50.560;7.268;2022-08-01T05:03:08;25.30;99.90
36556;DHT22;40859;50.560;7.268;2022-08-01T05:05:34;25.20;99.90
36556;DHT22;40859;50.560;7.268;2022-08-01T05:08:01;25.00;99.90
36556;DHT22;40859;50.560;7.268;2022-08-01T05:10:27;25.10;99.90
36556;DHT22;40859;50.560;7.268;2022-08-01T05:12:53;25.10;99.90
36556;DHT22;40859;50.560;7.268;2022-08-01T05:15:19;25.10;99.90
36556;DHT22;40859;50.560;7.268;2022-08-01T05:17:45;25.10;99.90
36556;DHT22;40859;50.560;7.268;2022-08-01T05:20:12;25.00;99.90
36556;DHT22;40859;50.560;7.268;2022-08-01T05:22:38;24.90;99.90
36556;DHT22;40859;50.560;7.268;2022-08-01T05:25:05;24.90;99.90
36556;DHT22;40859;50.560;7.268;2022-08-01T05:27:32;24.90;99.90
36556;DHT22;40859;50.560;7.268;2022-08-01T05:29:58;24.80;99.90
36556;DHT22;40859;50.560;7.268;2022-08-01T05:32:24;24.90;99.90
36556;DHT22;40859;50.560;7.268;2022-08-01T05:34:50;24.80;99.90
36556;DHT22;40859;50.560;7.268;2022-08-01T05:37:15;24.80;99.90
36556;DHT22;40859;50.560;7.268;2022-08-01T05:39:41;24.90;99.90
36556;DHT22;40859;50.560;7.268;2022-08-01T05:42:07;24.90;99.90
36556;DHT22;40859;50.560;7.268;2022-08-01T05:44:34;24.90;99.90
36556;DHT22;40859;50.560;7.268;2022-08-01T05:46:59;25.00;99.90
36556;DHT22;40859;50.560;7.268;2022-08-01T05:49:26;25.00;99.90
36556;DHT22;40859;50.560;7.268;2022-08-01T05:51:52;25.10;99.90
36556;DHT22;40859;50.560;7.268;2022-08-01T05:54:18;25.10;99.90
36556;DHT22;40859;50.560;7.268;2022-08-01T05:56:44;25.10;99.90
36556;DHT22;40859;50.560;7.268;2022-08-01T05:59:10;25.10;99.90
36556;DHT22;40859;50.560;7.268;2022-08-01T06:01:36;25.10;99.90
36556;DHT22;40859;50.560;7.268;2022-08-01T06:04:02;25.10;99.90
36556;DHT22;40859;50.560;7.268;2022-08-01T06:06:28;25.10;99.90
36556;DHT22;40859;50.560;7.268;2022-08-01T06:08:55;25.20;99.90
36556;DHT22;40859;50.560;7.268;2022-08-01T06:11:21;25.10;99.90
36556;DHT22;40859;50.560;7.268;2022-08-01T06:13:47;25.00;99.90
36556;DHT22;40859;50.560;7.268;2022-08-01T06:16:13;25.00;99.90
36556;DHT22;40859;50.560;7.268;2022-08-01T06:18:39;25.00;99.90
36556;DHT22;40859;50.560;7.268;2022-08-01T06:21:06;25.10;99.90
36556;DHT22;40859;50.560;7.268;2022-08-01T06:23:32;25.10;99.90
36556;DHT22;40859;50.560;7.268;2022-08-01T06:25:57;25.10;99.90
36556;DHT22;40859;50.560;7.268;2022-08-01T06:28:24;25.10;99.90
36556;DHT22;40859;50.560;7.268;2022-08-01T06:30:50;25.10;99.90
36556;DHT22;40859;50.560;7.268;2022-08-01T06:33:15;25.10;99.90
36556;DHT22;40859;50.560;7.268;2022-08-01T06:35:42;25.10;99.90
36556;DHT22;40859;50.560;7.268;2022-08-01T06:38:08;25.10;99.90
36556;DHT22;40859;50.560;7.268;2022-08-01T06:40:34;25.10;99.90
36556;DHT22;40859;50.560;7.268;2022-08-01T06:43:00;25.10;99.90
36556;DHT22;40859;50.560;7.268;2022-08-01T06:45:26;25.20;99.90
36556;DHT22;40859;50.560;7.268;2022-08-01T06:47:52;25.20;99.90
36556;DHT22;40859;50.560;7.268;2022-08-01T06:50:18;25.20;99.90
36556;DHT22;40859;50.560;7.268;2022-08-01T06:52:45;25.20;99.90
36556;DHT22;40859;50.560;7.268;2022-08-01T06:55:11;25.20;99.90
36556;DHT22;40859;50.560;7.268;2022-08-01T06:57:45;25.20;99.90
36556;DHT22;40859;50.560;7.268;2022-08-01T07:00:12;25.20;99.90
36556;DHT22;40859;50.560;7.268;2022-08-01T07:02:38;25.30;99.90
36556;DHT22;40859;50.560;7.268;2022-08-01T07:05:05;25.30;99.90
36556;DHT22;40859;50.560;7.268;2022-08-01T07:07:31;25.30;99.90
36556;DHT22;40859;50.560;7.268;2022-08-01T07:09:57;25.30;99.90
36556;DHT22;40859;50.560;7.268;2022-08-01T07:12:23;25.30;99.90
36556;DHT22;40859;50.560;7.268;2022-08-01T07:14:49;25.30;99.90
36556;DHT22;40859;50.560;7.268;2022-08-01T07:17:14;25.30;99.90
36556;DHT22;40859;50.560;7.268;2022-08-01T07:19:40;25.30;99.90
36556;DHT22;40859;50.560;7.268;2022-08-01T07:22:06;25.30;99.90
36556;DHT22;40859;50.560;7.268;2022-08-01T07:24:32;25.40;99.90
36556;DHT22;40859;50.560;7.268;2022-08-01T07:26:58;25.40;99.90
36556;DHT22;40859;50.560;7.268;2022-08-01T07:29:24;25.40;99.90
36556;DHT22;40859;50.560;7.268;2022-08-01T07:31:55;25.40;99.90
36556;DHT22;40859;50.560;7.268;2022-08-01T07:34:22;25.40;99.90
36556;DHT22;40859;50.560;7.268;2022-08-01T07:36:49;25.40;99.90
36556;DHT22;40859;50.560;7.268;2022-08-01T07:39:15;25.40;99.90
36556;DHT22;40859;50.560;7.268;2022-08-01T07:41:41;25.40;99.90
36556;DHT22;40859;50.560;7.268;2022-08-01T07:44:07;25.40;99.90
36556;DHT22;40859;50.560;7.268;2022-08-01T07:46:32;25.40;99.90
36556;DHT22;40859;50.560;7.268;2022-08-01T07:48:58;25.40;99.90
36556;DHT22;40859;50.560;7.268;2022-08-01T07:51:24;25.40;99.90
36556;DHT22;40859;50.560;7.268;2022-08-01T07:53:50;25.40;99.90
36556;DHT22;40859;50.560;7.268;2022-08-01T07:56:16;25.40;99.90
36556;DHT22;40859;50.560;7.268;2022-08-01T07:58:41;25.40;99.90
36556;DHT22;40859;50.560;7.268;2022-08-01T08:01:07;25.40;99.90
36556;DHT22;40859;50.560;7.268;2022-08-01T08:03:33;25.40;99.90
36556;DHT22;40859;50.560;7.268;2022-08-01T08:05:59;25.40;99.90
36556;DHT22;40859;50.560;7.268;2022-08-01T08:08:26;25.40;99.90
36556;DHT22;40859;50.560;7.268;2022-08-01T08:10:53;25.40;99.90
36556;DHT22;40859;50.560;7.268;2022-08-01T08:13:19;25.40;99.90
36556;DHT22;40859;50.560;7.268;2022-08-01T08:15:44;25.40;99.90
36556;DHT22;40859;50.560;7.268;2022-08-01T08:18:10;25.50;99.90
36556;DHT22;40859;50.560;7.268;2022-08-01T08:20:36;25.40;99.90
36556;DHT22;40859;50.560;7.268;2022-08-01T08:23:02;25.40;99.90
36556;DHT22;40859;50.560;7.268;2022-08-01T08:26:45;25.50;99.90
36556;DHT22;40859;50.560;7.268;2022-08-01T08:29:11;25.50;99.90
36556;DHT22;40859;50.560;7.268;2022-08-01T08:31:37;25.40;99.90
36556;DHT22;40859;50.560;7.268;2022-08-01T08:34:03;25.40;99.90
36556;DHT22;40859;50.560;7.268;2022-08-01T08:36:29;25.50;99.90
36556;DHT22;40859;50.560;7.268;2022-08-01T08:38:55;25.50;99.90
36556;DHT22;40859;50.560;7.268;2022-08-01T08:41:22;25.50;99.90
36556;DHT22;40859;50.560;7.268;2022-08-01T08:43:48;25.50;99.90
36556;DHT22;40859;50.560;7.268;2022-08-01T08:46:14;25.50;99.90
36556;DHT22;40859;50.560;7.268;2022-08-01T08:48:41;25.50;99.90
36556;DHT22;40859;50.560;7.268;2022-08-01T08:51:08;25.50;99.90
36556;DHT22;40859;50.560;7.268;2022-08-01T08:53:39;25.50;99.90
36556;DHT22;40859;50.560;7.268;2022-08-01T08:56:11;25.50;99.90
36556;DHT22;40859;50.560;7.268;2022-08-01T08:58:37;25.40;99.90
36556;DHT22;40859;50.560;7.268;2022-08-01T09:01:07;25.40;99.90
36556;DHT22;40859;50.560;7.268;2022-08-01T09:03:34;25.50;99.90
36556;DHT22;40859;50.560;7.268;2022-08-01T09:06:00;25.50;99.90
36556;DHT22;40859;50.560;7.268;2022-08-01T09:08:26;25.50;99.90
36556;DHT22;40859;50.560;7.268;2022-08-01T09:10:52;25.50;99.90
36556;DHT22;40859;50.560;7.268;2022-08-01T09:13:18;25.50;99.90
36556;DHT22;40859;50.560;7.268;2022-08-01T09:15:46;25.40;99.90
36556;DHT22;40859;50.560;7.268;2022-08-01T09:21:57;25.50;99.90
36556;DHT22;40859;50.560;7.268;2022-08-01T09:24:27;25.50;99.90
36556;DHT22;40859;50.560;7.268;2022-08-01T09:26:55;25.50;99.90
36556;DHT22;40859;50.560;7.268;2022-08-01T09:29:26;25.50;99.90
36556;DHT22;40859;50.560;7.268;2022-08-01T09:31:52;25.50;99.90
36556;DHT22;40859;50.560;7.268;2022-08-01T09:34:28;25.50;99.90
36556;DHT22;40859;50.560;7.268;2022-08-01T09:36:59;25.50;99.90
36556;DHT22;40859;50.560;7.268;2022-08-01T09:39:31;25.50;99.90
36556;DHT22;40859;50.560;7.268;2022-08-01T09:42:02;25.50;99.90
36556;DHT22;40859;50.560;7.268;2022-08-01T09:44:44;25.50;99.90
36556;DHT22;40859;50.560;7.268;2022-08-01T09:47:11;25.50;99.90
36556;DHT22;40859;50.560;7.268;2022-08-01T09:49:39;25.50;99.90
36556;DHT22;40859;50.560;7.268;2022-08-01T09:52:17;25.50;99.90
36556;DHT22;40859;50.560;7.268;2022-08-01T09:54:51;25.50;99.90
36556;DHT22;40859;50.560;7.268;2022-08-01T09:57:17;25.50;99.90
36556;DHT22;40859;50.560;7.268;2022-08-01T09:59:46;25.50;99.90
36556;DHT22;40859;50.560;7.268;2022-08-01T10:02:14;25.50;99.90
36556;DHT22;40859;50.560;7.268;2022-08-01T10:04:52;25.60;99.90
36556;DHT22;40859;50.560;7.268;2022-08-01T10:07:18;25.60;99.90
36556;DHT22;40859;50.560;7.268;2022-08-01T10:09:46;25.60;99.90
36556;DHT22;40859;50.560;7.268;2022-08-01T10:12:14;25.60;99.90
36556;DHT22;40859;50.560;7.268;2022-08-01T22:30:34;25.60;99.90
36556;DHT22;40859;50.560;7.268;2022-08-01T22:33:00;25.60;99.90
36556;DHT22;40859;50.560;7.268;2022-08-01T22:35:27;25.60;99.90
36556;DHT22;40859;50.560;7.268;2022-08-01T22:37:53;25.60;99.90
36556;DHT22;40859;50.560;7.268;2022-08-01T22:40:19;25.60;99.90
36556;DHT22;40859;50.560;7.268;2022-08-01T22:42:50;25.60;99.90
36556;DHT22;40859;50.560;7.268;2022-08-01T22:45:24;25.60;99.90
36556;DHT22;40859;50.560;7.268;2022-08-01T22:50:15;25.60;99.90
36556;DHT22;40859;50.560;7.268;2022-08-01T22:56:54;25.60;99.90
36556;DHT22;40859;50.560;7.268;2022-08-01T22:59:59;25.60;99.90
36556;DHT22;40859;50.560;7.268;2022-08-01T23:02:27;25.50;99.90
36556;DHT22;40859;50.560;7.268;2022-08-01T23:05:00;25.60;99.90
36556;DHT22;40859;50.560;7.268;2022-08-01T23:07:31;25.50;99.90
36556;DHT22;40859;50.560;7.268;2022-08-01T23:09:58;25.50;99.90
36556;DHT22;40859;50.560;7.268;2022-08-01T23:12:26;25.50;99.90
36556;DHT22;40859;50.560;7.268;2022-08-01T23:14:54;25.50;99.90
36556;DHT22;40859;50.560;7.268;2022-08-01T23:17:20;25.50;99.90
36556;DHT22;40859;50.560;7.268;2022-08-01T23:19:47;25.30;99.90
36556;DHT22;40859;50.560;7.268;2022-08-01T23:22:14;25.10;99.90
36556;DHT22;40859;50.560;7.268;2022-08-01T23:24:42;25.20;99.90
36556;DHT22;40859;50.560;7.268;2022-08-01T23:27:08;25.20;99.90
36556;DHT22;40859;50.560;7.268;2022-08-01T23:29:54;25.30;99.90
36556;DHT22;40859;50.560;7.268;2022-08-01T23:32:21;25.30;99.90
36556;DHT22;40859;50.560;7.268;2022-08-01T23:34:47;25.30;99.90
36556;DHT22;40859;50.560;7.268;2022-08-01T23:37:14;25.40;99.90
36556;DHT22;40859;50.560;7.268;2022-08-01T23:39:40;25.40;99.90
36556;DHT22;40859;50.560;7.268;2022-08-01T23:42:07;25.40;99.90
36556;DHT22;40859;50.560;7.268;2022-08-01T23:44:33;25.40;99.90
36556;DHT22;40859;50.560;7.268;2022-08-01T23:46:59;25.40;99.90
36556;DHT22;40859;50.560;7.268;2022-08-01T23:49:25;25.40;99.90
36556;DHT22;40859;50.560;7.268;2022-08-01T23:51:51;25.40;99.90
36556;DHT22;40859;50.560;7.268;2022-08-01T23:54:18;25.50;99.90
36556;DHT22;40859;50.560;7.268;2022-08-01T23:56:44;25.50;99.90
36556;DHT22;40859;50.560;7.268;2022-08-01T23:59:10;25.50;99.90
